Weather at Bastia-Poretta Airport

Public forecast

Using degrees Celsius for public forecast. Weather courtesy of forecast.io.

Current aviation weather report (METAR) for Bastia-Poretta Airport

2024/05/29 00:00 (retrieved 32 minutes ago)

LFKB 290000Z AUTO 21003KT CAVOK 15/13 Q1015 TEMPO BKN010

Aviation forecast (TAF) for Bastia-Poretta Airport

2024/05/28 21:24 (retrieved 3 hours ago)

TAF TAF LFKB 282000Z 2821/2921 23003KT 9999 FEW030 TX25/2913Z TN15/2904Z PROB30 TEMPO 2821/2905 BKN010 BECMG 2907/2909 05010KT BECMG 2919/2921 VRB03KT